Time;durP1;ratioP1;P1;durP2;ratioP2;P2;SDS_P1;SDS_P2;PMS_P1;PMS_P2;Temp;Humidity;BMP_temperature;BMP_pressure;BME280_temperature;BME280_humidity;BME280_pressure;Samples;Min_cycle;Max_cycle;Signal;HPM_P1;HPM_P2
2022/06/26 00:01:00;;;;;;;;;;;23.30;65.20;;;;;;5049659;28;19928;-75
2022/06/26 00:03:26;;;;;;;;;;;23.20;65.50;;;;;;5049130;28;19924;-76
2022/06/26 00:05:53;;;;;;;;;;;23.20;65.80;;;;;;5052450;28;19933;-78
2022/06/26 00:08:21;;;;;;;;;;;23.20;66.20;;;;;;5053320;28;20293;-77
2022/06/26 00:10:47;;;;;;;;;;;23.20;66.60;;;;;;5053080;28;19929;-76
2022/06/26 00:13:14;;;;;;;;;;;23.10;66.80;;;;;;5051036;28;19945;-76
2022/06/26 00:15:41;;;;;;;;;;;23.10;67.10;;;;;;5045330;28;19928;-76
2022/06/26 00:18:09;;;;;;;;;;;23.00;67.30;;;;;;5050847;28;19944;-76
2022/06/26 00:20:36;;;;;;;;;;;23.00;67.60;;;;;;5053595;28;20256;-77
2022/06/26 00:23:03;;;;;;;;;;;23.00;68.70;;;;;;5045873;28;19936;-75
2022/06/26 00:25:29;;;;;;;;;;;22.90;68.40;;;;;;5043031;28;19929;-76
2022/06/26 00:27:56;;;;;;;;;;;22.90;68.60;;;;;;5049150;28;19936;-76
2022/06/26 00:30:23;;;;;;;;;;;22.90;68.90;;;;;;5042869;28;20030;-78
2022/06/26 00:32:49;;;;;;;;;;;22.80;69.00;;;;;;5045548;28;19936;-76
2022/06/26 00:35:17;;;;;;;;;;;22.80;69.40;;;;;;5044250;28;19963;-77
2022/06/26 00:37:44;;;;;;;;;;;22.80;69.60;;;;;;5044503;28;19948;-74
2022/06/26 00:40:11;;;;;;;;;;;22.80;69.90;;;;;;5038692;28;19937;-77
2022/06/26 00:42:37;;;;;;;;;;;22.70;70.20;;;;;;5042694;28;19929;-75
2022/06/26 00:45:04;;;;;;;;;;;22.70;70.40;;;;;;5042288;28;19933;-77
2022/06/26 00:47:31;;;;;;;;;;;22.60;70.60;;;;;;5045430;28;19932;-77
2022/06/26 00:49:58;;;;;;;;;;;22.60;70.80;;;;;;5041911;28;20389;-77
2022/06/26 00:52:27;;;;;;;;;;;22.60;71.00;;;;;;5047097;28;19940;-77
2022/06/26 00:54:54;;;;;;;;;;;22.60;71.10;;;;;;5041771;28;19932;-77
2022/06/26 00:57:21;;;;;;;;;;;22.50;71.10;;;;;;5044423;28;19936;-76
2022/06/26 00:59:48;;;;;;;;;;;22.50;71.30;;;;;;5044682;28;19929;-76
2022/06/26 01:02:15;;;;;;;;;;;22.40;71.30;;;;;;5038108;28;19928;-74
2022/06/26 01:04:41;;;;;;;;;;;22.40;71.40;;;;;;5043030;28;19943;-75
2022/06/26 01:07:08;;;;;;;;;;;22.40;71.50;;;;;;5045234;28;20416;-75
2022/06/26 01:09:36;;;;;;;;;;;22.30;71.50;;;;;;5040208;28;19929;-76
2022/06/26 01:12:03;;;;;;;;;;;22.30;71.50;;;;;;5042529;28;19932;-75
2022/06/26 01:14:30;;;;;;;;;;;22.30;71.60;;;;;;5039160;28;19932;-74
2022/06/26 01:16:56;;;;;;;;;;;22.30;71.60;;;;;;5041176;28;20288;-75
2022/06/26 01:19:23;;;;;;;;;;;22.20;71.60;;;;;;5041114;28;20657;-77
2022/06/26 01:21:49;;;;;;;;;;;22.20;71.60;;;;;;5041533;28;19940;-77
2022/06/26 01:24:17;;;;;;;;;;;22.20;71.80;;;;;;5038358;28;19939;-76
2022/06/26 01:26:44;;;;;;;;;;;22.20;71.80;;;;;;5040219;28;20758;-76
2022/06/26 01:29:11;;;;;;;;;;;22.10;71.80;;;;;;5040245;28;19933;-75
2022/06/26 01:31:38;;;;;;;;;;;22.10;71.90;;;;;;5042889;28;19929;-75
2022/06/26 01:34:05;;;;;;;;;;;22.10;72.00;;;;;;5039404;28;19935;-75
2022/06/26 01:36:31;;;;;;;;;;;22.10;72.00;;;;;;5041628;28;20040;-75
2022/06/26 01:38:58;;;;;;;;;;;22.00;72.00;;;;;;5040076;28;19935;-75
2022/06/26 01:41:26;;;;;;;;;;;22.00;72.70;;;;;;5040205;28;19986;-78
2022/06/26 01:43:52;;;;;;;;;;;22.00;72.10;;;;;;5041980;28;19928;-77
2022/06/26 01:46:19;;;;;;;;;;;22.00;72.20;;;;;;5037819;28;19924;-76
2022/06/26 01:48:46;;;;;;;;;;;22.00;72.20;;;;;;5038756;28;19928;-75
2022/06/26 01:51:12;;;;;;;;;;;22.00;72.30;;;;;;5041568;28;19935;-75
2022/06/26 01:53:39;;;;;;;;;;;21.90;72.30;;;;;;5040718;28;20298;-77
2022/06/26 01:56:05;;;;;;;;;;;21.90;72.40;;;;;;5039396;28;19971;-75
2022/06/26 01:58:34;;;;;;;;;;;21.90;72.60;;;;;;5039170;28;19933;-74
2022/06/26 02:01:03;;;;;;;;;;;21.90;72.70;;;;;;5040864;28;19936;-75
2022/06/26 02:03:30;;;;;;;;;;;21.80;72.60;;;;;;5036130;28;20002;-74
2022/06/26 02:05:56;;;;;;;;;;;21.80;72.70;;;;;;5035979;28;19928;-75
2022/06/26 02:08:23;;;;;;;;;;;21.80;72.70;;;;;;5039441;28;20407;-76
2022/06/26 02:13:39;;;;;;;;;;;21.80;72.90;;;;;;5040757;28;20086;-75
2022/06/26 02:16:10;;;;;;;;;;;21.70;73.00;;;;;;5040082;28;19929;-76
2022/06/26 02:18:39;;;;;;;;;;;21.70;73.00;;;;;;5038492;28;20194;-75
2022/06/26 02:21:07;;;;;;;;;;;21.70;73.20;;;;;;5039898;28;19928;-76
2022/06/26 02:23:34;;;;;;;;;;;21.70;73.20;;;;;;5038682;28;19994;-74
2022/06/26 02:26:00;;;;;;;;;;;21.70;73.40;;;;;;5037835;28;19935;-75
2022/06/26 02:28:27;;;;;;;;;;;21.70;73.50;;;;;;5039204;28;20465;-75
2022/06/26 02:30:55;;;;;;;;;;;21.70;73.60;;;;;;5039972;28;19940;-77
2022/06/26 02:33:22;;;;;;;;;;;21.60;73.70;;;;;;5040211;28;19935;-77
2022/06/26 02:35:49;;;;;;;;;;;21.60;73.70;;;;;;5041253;28;20430;-75
2022/06/26 02:38:16;;;;;;;;;;;21.60;73.80;;;;;;5045432;28;19929;-76
2022/06/26 02:40:43;;;;;;;;;;;21.50;73.80;;;;;;5043022;28;20015;-76
2022/06/26 02:43:09;;;;;;;;;;;21.50;73.90;;;;;;5044084;28;19929;-75
2022/06/26 02:45:36;;;;;;;;;;;21.50;74.00;;;;;;5041565;28;19929;-75
2022/06/26 02:48:04;;;;;;;;;;;21.50;74.00;;;;;;5043417;28;19932;-75
2022/06/26 02:50:31;;;;;;;;;;;21.50;74.20;;;;;;5044266;28;20415;-76
2022/06/26 02:52:57;;;;;;;;;;;21.50;74.20;;;;;;5048584;28;19936;-75
2022/06/26 02:55:24;;;;;;;;;;;21.40;74.10;;;;;;5040752;28;19936;-78
2022/06/26 02:57:50;;;;;;;;;;;21.40;74.20;;;;;;5046327;28;19936;-77
2022/06/26 03:00:17;;;;;;;;;;;21.40;74.30;;;;;;5041107;28;19939;-76
2022/06/26 03:02:44;;;;;;;;;;;21.40;74.50;;;;;;5042563;28;20581;-77
2022/06/26 03:05:12;;;;;;;;;;;21.40;74.60;;;;;;5042837;28;19937;-77
2022/06/26 03:07:38;;;;;;;;;;;21.40;74.70;;;;;;5046108;28;19929;-76
2022/06/26 03:10:05;;;;;;;;;;;21.40;74.70;;;;;;5041112;28;20059;-77
2022/06/26 03:12:32;;;;;;;;;;;21.40;74.90;;;;;;5043579;28;19933;-76
2022/06/26 03:14:59;;;;;;;;;;;21.30;74.80;;;;;;5042477;28;20579;-75
2022/06/26 03:17:25;;;;;;;;;;;21.30;74.90;;;;;;5042265;28;19935;-75
2022/06/26 03:19:52;;;;;;;;;;;21.30;75.00;;;;;;5042104;28;20028;-77
2022/06/26 03:22:20;;;;;;;;;;;21.30;75.10;;;;;;5042864;28;20006;-77
2022/06/26 03:24:46;;;;;;;;;;;21.30;75.10;;;;;;5043065;28;20399;-78
2022/06/26 03:27:13;;;;;;;;;;;21.20;75.10;;;;;;5041424;28;19929;-76
2022/06/26 03:29:40;;;;;;;;;;;21.20;75.20;;;;;;5043081;28;19940;-77
2022/06/26 03:32:07;;;;;;;;;;;21.20;75.20;;;;;;5041302;28;19937;-76
2022/06/26 03:34:33;;;;;;;;;;;21.20;75.30;;;;;;5039657;28;19929;-75
2022/06/26 03:37:00;;;;;;;;;;;21.10;75.30;;;;;;5043588;28;19944;-75
2022/06/26 03:39:28;;;;;;;;;;;21.10;75.40;;;;;;5042234;28;19929;-75
2022/06/26 03:42:01;;;;;;;;;;;21.20;75.50;;;;;;5042585;28;19933;-78
2022/06/26 03:44:28;;;;;;;;;;;21.10;75.50;;;;;;5043625;28;20416;-76
2022/06/26 03:46:54;;;;;;;;;;;21.10;75.60;;;;;;5039076;28;19940;-78
2022/06/26 03:49:21;;;;;;;;;;;21.10;75.70;;;;;;5041138;28;19943;-78
2022/06/26 03:51:47;;;;;;;;;;;21.10;75.70;;;;;;5041818;28;19929;-75
2022/06/26 03:54:14;;;;;;;;;;;21.00;75.70;;;;;;5044140;28;19932;-76
2022/06/26 03:56:42;;;;;;;;;;;21.00;75.70;;;;;;5040960;28;19937;-77
2022/06/26 03:59:09;;;;;;;;;;;21.00;75.80;;;;;;5045727;28;19932;-76
2022/06/26 04:01:36;;;;;;;;;;;20.90;75.70;;;;;;5040185;28;19939;-76
2022/06/26 04:04:02;;;;;;;;;;;20.90;75.80;;;;;;5041321;28;19932;-77
2022/06/26 04:06:29;;;;;;;;;;;20.90;75.90;;;;;;5041763;28;19933;-75
2022/06/26 04:08:55;;;;;;;;;;;20.90;75.80;;;;;;5042583;28;19940;-78
2022/06/26 04:11:22;;;;;;;;;;;20.80;75.80;;;;;;5042344;28;19924;-78
2022/06/26 04:13:50;;;;;;;;;;;20.80;75.90;;;;;;5040245;28;19936;-76
2022/06/26 04:16:17;;;;;;;;;;;20.80;75.90;;;;;;5038705;28;19937;-77
2022/06/26 04:18:43;;;;;;;;;;;20.80;76.00;;;;;;5041440;28;19936;-76
2022/06/26 04:21:10;;;;;;;;;;;20.80;76.00;;;;;;5042095;28;19936;-77
2022/06/26 04:23:36;;;;;;;;;;;20.70;76.00;;;;;;5039219;28;19929;-75
2022/06/26 04:26:03;;;;;;;;;;;20.70;76.10;;;;;;5042546;28;20384;-76
2022/06/26 04:28:29;;;;;;;;;;;20.70;76.20;;;;;;5040446;28;20396;-76
2022/06/26 04:30:57;;;;;;;;;;;20.70;76.20;;;;;;5041332;28;20373;-76
2022/06/26 04:33:24;;;;;;;;;;;20.70;76.20;;;;;;5041535;28;19928;-77
2022/06/26 04:35:50;;;;;;;;;;;20.70;76.20;;;;;;5039478;28;19932;-76
2022/06/26 04:38:17;;;;;;;;;;;20.60;76.30;;;;;;5041903;28;19958;-77
2022/06/26 04:40:44;;;;;;;;;;;20.60;76.30;;;;;;5040592;28;19936;-75
2022/06/26 04:43:10;;;;;;;;;;;20.60;76.40;;;;;;5041676;28;19960;-76
2022/06/26 04:45:37;;;;;;;;;;;20.50;76.40;;;;;;5040364;28;19928;-75
2022/06/26 04:48:05;;;;;;;;;;;20.50;76.50;;;;;;5041835;28;19929;-75
2022/06/26 04:50:32;;;;;;;;;;;20.50;76.60;;;;;;5040383;28;19936;-77
2022/06/26 04:52:58;;;;;;;;;;;20.50;76.60;;;;;;5039437;28;19929;-75
2022/06/26 04:55:25;;;;;;;;;;;20.40;76.60;;;;;;5036802;28;20304;-78
2022/06/26 04:57:51;;;;;;;;;;;20.50;76.70;;;;;;5047515;28;20327;-77
2022/06/26 05:00:18;;;;;;;;;;;20.40;76.70;;;;;;5039471;28;19936;-78
2022/06/26 05:02:44;;;;;;;;;;;20.40;76.70;;;;;;5037013;28;19940;-76
2022/06/26 05:05:12;;;;;;;;;;;20.40;76.80;;;;;;5041492;28;20502;-76
2022/06/26 05:07:39;;;;;;;;;;;20.40;76.90;;;;;;5044900;28;19933;-76
2022/06/26 05:10:06;;;;;;;;;;;20.40;76.90;;;;;;5043258;28;19933;-76
2022/06/26 05:12:32;;;;;;;;;;;20.30;76.90;;;;;;5041347;28;20468;-75
2022/06/26 05:14:59;;;;;;;;;;;20.30;77.00;;;;;;5040200;28;19959;-75
2022/06/26 05:17:25;;;;;;;;;;;20.30;77.10;;;;;;5041261;28;19929;-78
2022/06/26 05:19:52;;;;;;;;;;;20.30;77.20;;;;;;5041145;28;19951;-78
2022/06/26 05:22:20;;;;;;;;;;;20.30;77.20;;;;;;5042617;28;20292;-75
2022/06/26 05:24:46;;;;;;;;;;;20.30;77.20;;;;;;5042910;28;19933;-78
2022/06/26 05:27:13;;;;;;;;;;;20.30;77.20;;;;;;5039679;28;19955;-76
2022/06/26 05:29:39;;;;;;;;;;;20.30;77.20;;;;;;5043532;28;19936;-76
2022/06/26 05:32:06;;;;;;;;;;;20.30;78.00;;;;;;5042475;28;19932;-75
2022/06/26 05:34:33;;;;;;;;;;;20.30;77.20;;;;;;5035609;28;19925;-74
2022/06/26 05:36:59;;;;;;;;;;;20.30;77.20;;;;;;5043067;28;20138;-76
2022/06/26 05:39:27;;;;;;;;;;;20.30;77.10;;;;;;5044169;28;20309;-76
2022/06/26 05:41:54;;;;;;;;;;;20.30;77.10;;;;;;5046114;28;20656;-77
2022/06/26 05:44:20;;;;;;;;;;;20.30;77.00;;;;;;5045353;28;19933;-76
2022/06/26 05:46:47;;;;;;;;;;;20.30;76.90;;;;;;5044934;28;19940;-76
2022/06/26 05:49:13;;;;;;;;;;;20.30;77.10;;;;;;5043479;28;19936;-76
2022/06/26 05:51:40;;;;;;;;;;;20.30;76.90;;;;;;5046393;28;20636;-77
2022/06/26 05:54:07;;;;;;;;;;;20.30;76.80;;;;;;5045918;28;20007;-75
2022/06/26 05:56:34;;;;;;;;;;;20.30;76.80;;;;;;5044210;28;19928;-75
2022/06/26 05:59:01;;;;;;;;;;;20.30;76.70;;;;;;5048338;28;19929;-75
2022/06/26 06:01:28;;;;;;;;;;;20.30;76.70;;;;;;5044341;28;19933;-75
2022/06/26 06:03:54;;;;;;;;;;;20.30;76.60;;;;;;5043318;28;19932;-78
2022/06/26 06:06:21;;;;;;;;;;;20.30;76.60;;;;;;5043622;28;19936;-77
2022/06/26 06:08:48;;;;;;;;;;;20.30;76.60;;;;;;5044811;28;19933;-75
2022/06/26 06:11:15;;;;;;;;;;;20.40;76.60;;;;;;5045978;28;19932;-76
2022/06/26 06:13:43;;;;;;;;;;;20.40;76.60;;;;;;5044384;28;19936;-75
2022/06/26 06:16:09;;;;;;;;;;;20.30;76.50;;;;;;5045910;28;19929;-77
2022/06/26 06:18:36;;;;;;;;;;;20.40;76.60;;;;;;5049311;28;19932;-76
2022/06/26 06:21:02;;;;;;;;;;;20.40;76.50;;;;;;5046124;28;19933;-76
2022/06/26 06:23:29;;;;;;;;;;;20.40;76.50;;;;;;5044370;28;19940;-76
2022/06/26 06:25:55;;;;;;;;;;;20.40;76.40;;;;;;5045661;28;20476;-78
2022/06/26 06:28:22;;;;;;;;;;;20.40;76.40;;;;;;5045193;28;19943;-78
2022/06/26 06:30:50;;;;;;;;;;;20.40;76.40;;;;;;5046531;28;19929;-76
2022/06/26 06:33:17;;;;;;;;;;;20.40;76.30;;;;;;5047847;28;19936;-77
2022/06/26 06:35:43;;;;;;;;;;;20.50;76.30;;;;;;5045644;28;19932;-76
2022/06/26 06:38:10;;;;;;;;;;;20.50;76.30;;;;;;5038684;28;19925;-74
2022/06/26 06:40:37;;;;;;;;;;;20.50;76.30;;;;;;5036904;28;19932;-75
2022/06/26 06:43:03;;;;;;;;;;;20.50;76.10;;;;;;5036386;28;19952;-73
2022/06/26 06:45:30;;;;;;;;;;;20.50;76.10;;;;;;5036763;28;19929;-74
2022/06/26 06:47:57;;;;;;;;;;;20.50;76.00;;;;;;5039114;28;19932;-75
2022/06/26 06:50:24;;;;;;;;;;;20.50;76.00;;;;;;5039632;28;19963;-75
2022/06/26 06:52:51;;;;;;;;;;;20.60;76.00;;;;;;5043786;28;19933;-76
2022/06/26 06:55:17;;;;;;;;;;;20.60;75.90;;;;;;5037641;28;19955;-75
2022/06/26 06:57:44;;;;;;;;;;;20.60;75.90;;;;;;5036303;28;20340;-74
2022/06/26 07:00:10;;;;;;;;;;;20.60;75.80;;;;;;5038738;28;19940;-76
2022/06/26 07:02:37;;;;;;;;;;;20.60;75.70;;;;;;5038653;28;19975;-75
2022/06/26 07:05:06;;;;;;;;;;;20.60;75.60;;;;;;5038477;28;19975;-75
2022/06/26 07:07:33;;;;;;;;;;;20.60;75.60;;;;;;5039962;28;20020;-75
2022/06/26 07:09:59;;;;;;;;;;;20.60;75.60;;;;;;5038112;28;19928;-74
2022/06/26 07:12:26;;;;;;;;;;;20.70;75.50;;;;;;5040125;28;19932;-75
2022/06/26 07:14:53;;;;;;;;;;;20.70;75.50;;;;;;5039617;28;19933;-74
2022/06/26 07:17:21;;;;;;;;;;;20.70;75.50;;;;;;5038870;28;19929;-75
2022/06/26 07:19:48;;;;;;;;;;;20.70;75.50;;;;;;5038789;28;20031;-74
2022/06/26 07:22:15;;;;;;;;;;;20.70;75.40;;;;;;5029711;28;20387;-74
2022/06/26 07:24:42;;;;;;;;;;;20.80;75.30;;;;;;5035846;28;19937;-74
2022/06/26 07:27:09;;;;;;;;;;;20.80;75.30;;;;;;5040592;28;19928;-77
2022/06/26 07:29:36;;;;;;;;;;;20.80;75.20;;;;;;5036876;28;19928;-75
2022/06/26 07:32:02;;;;;;;;;;;20.80;75.20;;;;;;5033252;28;20379;-75
2022/06/26 07:34:30;;;;;;;;;;;20.80;75.10;;;;;;5037914;28;19933;-74
2022/06/26 07:36:57;;;;;;;;;;;20.90;75.10;;;;;;5037176;28;19932;-74
2022/06/26 07:39:24;;;;;;;;;;;20.90;75.00;;;;;;5040991;28;19925;-77
2022/06/26 07:41:51;;;;;;;;;;;20.90;74.80;;;;;;5040825;28;19932;-78
2022/06/26 07:44:17;;;;;;;;;;;20.90;74.60;;;;;;5037994;28;19936;-78
2022/06/26 07:46:45;;;;;;;;;;;20.90;74.60;;;;;;5036789;28;20531;-76
2022/06/26 07:49:12;;;;;;;;;;;21.00;74.50;;;;;;5041455;28;19935;-76
2022/06/26 07:51:38;;;;;;;;;;;21.00;74.40;;;;;;5042110;28;19951;-76
2022/06/26 07:54:05;;;;;;;;;;;21.00;74.40;;;;;;5041578;28;19935;-76
2022/06/26 07:56:33;;;;;;;;;;;21.00;74.30;;;;;;5041588;28;19990;-77
2022/06/26 07:58:59;;;;;;;;;;;21.00;74.10;;;;;;5037813;28;19929;-76
2022/06/26 08:01:26;;;;;;;;;;;21.10;74.10;;;;;;5041429;28;19933;-77
2022/06/26 08:03:53;;;;;;;;;;;21.10;73.90;;;;;;5039623;28;19933;-78
2022/06/26 08:06:20;;;;;;;;;;;21.10;73.80;;;;;;5042907;28;19936;-76
2022/06/26 08:08:46;;;;;;;;;;;21.10;73.70;;;;;;5039618;28;20917;-77
2022/06/26 08:11:13;;;;;;;;;;;21.20;73.80;;;;;;5043132;28;19939;-74
2022/06/26 08:13:41;;;;;;;;;;;21.20;73.70;;;;;;5039479;28;19939;-75
2022/06/26 08:16:07;;;;;;;;;;;21.20;73.70;;;;;;5040839;28;19933;-75
2022/06/26 08:18:34;;;;;;;;;;;21.20;73.70;;;;;;5038305;28;19936;-74
2022/06/26 08:22:00;;;;;;;;;;;21.30;73.60;;;;;;5040835;28;19929;-75
2022/06/26 08:23:48;;;;;;;;;;;21.30;73.60;;;;;;5040605;28;19933;-74
2022/06/26 08:26:14;;;;;;;;;;;21.30;73.50;;;;;;5041263;28;20298;-76
2022/06/26 08:28:42;;;;;;;;;;;21.40;73.30;;;;;;5032671;28;19928;-76
2022/06/26 08:31:09;;;;;;;;;;;21.40;73.20;;;;;;5038962;28;19933;-75
2022/06/26 08:33:35;;;;;;;;;;;21.40;73.10;;;;;;5037922;28;19956;-75
2022/06/26 08:36:03;;;;;;;;;;;21.50;72.80;;;;;;5038271;28;19928;-75
2022/06/26 08:38:30;;;;;;;;;;;21.50;72.60;;;;;;5035379;28;19936;-75
2022/06/26 08:40:58;;;;;;;;;;;21.50;72.60;;;;;;5037756;28;19932;-74
2022/06/26 08:43:25;;;;;;;;;;;21.60;72.50;;;;;;5037616;28;19928;-75
2022/06/26 08:45:53;;;;;;;;;;;21.60;72.40;;;;;;5036232;28;19965;-77
2022/06/26 08:48:21;;;;;;;;;;;21.70;72.40;;;;;;5035754;28;20355;-76
2022/06/26 08:50:47;;;;;;;;;;;21.70;72.30;;;;;;5035439;28;19933;-76
2022/06/26 08:53:15;;;;;;;;;;;21.70;72.00;;;;;;5040482;28;19928;-75
2022/06/26 08:55:42;;;;;;;;;;;21.70;71.70;;;;;;5036326;28;19929;-76
2022/06/26 08:58:09;;;;;;;;;;;21.80;71.60;;;;;;5039656;28;19936;-76
2022/06/26 09:00:35;;;;;;;;;;;21.80;71.50;;;;;;5039287;28;19933;-76
2022/06/26 09:03:03;;;;;;;;;;;21.80;71.60;;;;;;5040759;28;19928;-75
2022/06/26 09:05:30;;;;;;;;;;;21.90;71.50;;;;;;5039774;28;19925;-73
2022/06/26 09:07:58;;;;;;;;;;;21.90;71.20;;;;;;5038439;28;19940;-75
2022/06/26 09:10:27;;;;;;;;;;;22.00;71.00;;;;;;5040760;28;19956;-77
2022/06/26 09:12:55;;;;;;;;;;;22.00;70.70;;;;;;5039480;28;19943;-78
2022/06/26 09:15:22;;;;;;;;;;;22.00;70.60;;;;;;5038746;28;19929;-76
2022/06/26 09:17:58;;;;;;;;;;;22.10;70.60;;;;;;5039419;28;21104;-74
2022/06/26 09:20:26;;;;;;;;;;;22.10;70.30;;;;;;5037292;28;20420;-76
2022/06/26 09:22:53;;;;;;;;;;;22.20;70.10;;;;;;5040459;28;20894;-78
2022/06/26 09:25:20;;;;;;;;;;;22.20;70.00;;;;;;5038391;28;19929;-76
2022/06/26 09:27:47;;;;;;;;;;;22.30;69.60;;;;;;5037862;28;19932;-77
2022/06/26 09:30:13;;;;;;;;;;;22.30;69.10;;;;;;5039162;28;20628;-76
2022/06/26 09:32:40;;;;;;;;;;;22.30;68.60;;;;;;5038079;28;19932;-77
2022/06/26 09:35:07;;;;;;;;;;;22.40;68.50;;;;;;5037696;28;19959;-74
2022/06/26 09:37:37;;;;;;;;;;;22.40;68.20;;;;;;5038645;28;19932;-75
2022/06/26 09:40:04;;;;;;;;;;;22.50;67.90;;;;;;5036092;28;20018;-74
2022/06/26 09:42:32;;;;;;;;;;;22.60;67.90;;;;;;5041653;28;20331;-74
2022/06/26 09:44:59;;;;;;;;;;;22.60;67.70;;;;;;5038849;28;19937;-74
2022/06/26 09:47:27;;;;;;;;;;;22.70;67.60;;;;;;5032888;28;19929;-74
2022/06/26 09:49:54;;;;;;;;;;;22.70;66.70;;;;;;5034487;28;19939;-76
2022/06/26 09:52:22;;;;;;;;;;;22.80;66.50;;;;;;5038459;28;19933;-72
2022/06/26 09:54:52;;;;;;;;;;;22.90;66.10;;;;;;5038234;28;20011;-73
2022/06/26 09:57:19;;;;;;;;;;;22.90;66.10;;;;;;5040775;28;19936;-74
2022/06/26 09:59:46;;;;;;;;;;;23.00;66.20;;;;;;5038207;28;19929;-74
2022/06/26 10:07:45;;;;;;;;;;;23.20;66.00;;;;;;5037893;28;19971;-73
2022/06/26 10:10:13;;;;;;;;;;;23.30;66.00;;;;;;5035753;28;19928;-73
2022/06/26 10:12:40;;;;;;;;;;;23.30;65.90;;;;;;5036932;28;19936;-73
2022/06/26 10:15:08;;;;;;;;;;;23.40;65.70;;;;;;5039315;28;19940;-75
2022/06/26 10:17:42;;;;;;;;;;;23.40;65.50;;;;;;5040729;28;19928;-75
2022/06/26 10:20:10;;;;;;;;;;;23.50;65.40;;;;;;5040774;28;19983;-74
2022/06/26 10:22:40;;;;;;;;;;;23.50;64.50;;;;;;5038973;28;20051;-74
2022/06/26 10:25:07;;;;;;;;;;;23.60;64.30;;;;;;5038814;28;19976;-74
2022/06/26 10:27:37;;;;;;;;;;;23.70;64.40;;;;;;5037744;28;19924;-73
2022/06/26 10:30:04;;;;;;;;;;;23.70;64.40;;;;;;5041616;28;19951;-73
2022/06/26 10:32:31;;;;;;;;;;;23.80;64.60;;;;;;5039113;28;19929;-73
2022/06/26 10:34:58;;;;;;;;;;;23.80;64.40;;;;;;5034151;28;19932;-74
2022/06/26 10:37:24;;;;;;;;;;;23.90;64.40;;;;;;5038094;28;19933;-74
2022/06/26 10:39:52;;;;;;;;;;;24.00;64.30;;;;;;5034306;28;19929;-74
2022/06/26 10:45:07;;;;;;;;;;;24.10;64.30;;;;;;5035923;28;19951;-73
2022/06/26 10:47:40;;;;;;;;;;;24.20;64.20;;;;;;5036228;28;20635;-73
2022/06/26 10:50:07;;;;;;;;;;;24.20;64.10;;;;;;5038983;28;19939;-73
2022/06/26 10:52:34;;;;;;;;;;;24.20;63.70;;;;;;5040817;28;19935;-74
2022/06/26 10:55:02;;;;;;;;;;;24.30;63.40;;;;;;5033099;28;20389;-74
2022/06/26 10:57:34;;;;;;;;;;;24.30;63.70;;;;;;5039993;28;19933;-74
2022/06/26 11:00:01;;;;;;;;;;;24.40;63.60;;;;;;5037825;28;20023;-73
2022/06/26 11:02:34;;;;;;;;;;;24.40;63.50;;;;;;5044211;28;19928;-73
2022/06/26 11:05:01;;;;;;;;;;;24.50;63.40;;;;;;5042718;28;19936;-73
2022/06/26 11:07:28;;;;;;;;;;;24.50;63.10;;;;;;5046556;28;19929;-73
2022/06/26 11:09:56;;;;;;;;;;;24.50;62.50;;;;;;5043683;28;19982;-75
2022/06/26 11:12:22;;;;;;;;;;;24.60;62.50;;;;;;5044823;28;20653;-74
2022/06/26 11:14:49;;;;;;;;;;;24.60;62.40;;;;;;5043532;28;20050;-74
2022/06/26 11:17:22;;;;;;;;;;;24.60;62.40;;;;;;5041893;28;19928;-76
2022/06/26 11:22:34;;;;;;;;;;;24.70;62.40;;;;;;5006566;28;20069;-73
2022/06/26 11:25:00;;;;;;;;;;;24.80;62.40;;;;;;5036097;28;19929;-73
2022/06/26 11:27:28;;;;;;;;;;;24.80;62.40;;;;;;5041949;28;19938;-74
2022/06/26 11:29:55;;;;;;;;;;;24.90;62.30;;;;;;5043080;28;20637;-74
2022/06/26 11:32:21;;;;;;;;;;;24.90;62.00;;;;;;5041788;28;19940;-75
2022/06/26 11:34:48;;;;;;;;;;;25.00;61.70;;;;;;5040366;28;19936;-74
2022/06/26 11:37:16;;;;;;;;;;;25.00;61.40;;;;;;5038141;28;19933;-74
2022/06/26 11:39:43;;;;;;;;;;;25.10;61.50;;;;;;5041305;28;19933;-73
2022/06/26 11:42:16;;;;;;;;;;;25.10;61.50;;;;;;5041550;28;19933;-75
2022/06/26 11:44:52;;;;;;;;;;;25.10;61.10;;;;;;5041089;28;20776;-74
2022/06/26 11:47:20;;;;;;;;;;;25.20;60.20;;;;;;5038193;28;19940;-74
2022/06/26 11:49:46;;;;;;;;;;;25.20;59.80;;;;;;5040294;28;19929;-73
2022/06/26 11:52:13;;;;;;;;;;;25.30;59.70;;;;;;5030561;28;19933;-73
2022/06/26 11:54:42;;;;;;;;;;;25.30;60.00;;;;;;5037756;28;20265;-74
2022/06/26 11:57:09;;;;;;;;;;;25.40;60.20;;;;;;5037687;28;20277;-73
2022/06/26 11:59:40;;;;;;;;;;;25.40;60.20;;;;;;5038676;28;19956;-72
2022/06/26 12:02:17;;;;;;;;;;;25.40;60.00;;;;;;5040981;28;19928;-73
2022/06/26 12:04:53;;;;;;;;;;;25.50;59.80;;;;;;5042815;28;20404;-72
2022/06/26 12:07:20;;;;;;;;;;;25.50;59.70;;;;;;5042567;28;19928;-72
2022/06/26 12:09:48;;;;;;;;;;;25.60;59.90;;;;;;5040630;28;19933;-75
2022/06/26 12:12:14;;;;;;;;;;;25.60;60.10;;;;;;5044069;28;20015;-73
2022/06/26 12:14:44;;;;;;;;;;;25.60;59.70;;;;;;5040116;28;19929;-73
2022/06/26 12:17:11;;;;;;;;;;;25.70;59.90;;;;;;5037712;28;19929;-73
2022/06/26 12:19:38;;;;;;;;;;;25.70;59.70;;;;;;5039219;28;19939;-73
2022/06/26 12:22:05;;;;;;;;;;;25.70;59.30;;;;;;5035626;28;19932;-75
2022/06/26 12:24:31;;;;;;;;;;;25.80;59.20;;;;;;5032114;28;19933;-79
2022/06/26 12:26:59;;;;;;;;;;;25.80;59.40;;;;;;5040889;28;20392;-77
2022/06/26 12:29:26;;;;;;;;;;;25.90;59.30;;;;;;5039185;28;19935;-77
2022/06/26 12:31:52;;;;;;;;;;;25.90;59.00;;;;;;5041477;28;19929;-74
2022/06/26 12:34:19;;;;;;;;;;;25.90;59.00;;;;;;5029686;28;19929;-73
2022/06/26 12:36:45;;;;;;;;;;;25.90;59.10;;;;;;5036951;28;20415;-75
2022/06/26 12:39:12;;;;;;;;;;;26.00;59.10;;;;;;5033529;28;19932;-74
2022/06/26 12:41:39;;;;;;;;;;;26.10;58.90;;;;;;5033144;28;19932;-74
2022/06/26 12:44:07;;;;;;;;;;;26.10;58.90;;;;;;5031021;28;19928;-75
2022/06/26 12:46:33;;;;;;;;;;;26.10;58.70;;;;;;5034978;28;19940;-73
2022/06/26 12:49:00;;;;;;;;;;;26.20;58.20;;;;;;5037860;28;20311;-75
2022/06/26 12:51:27;;;;;;;;;;;26.20;57.90;;;;;;5041840;28;19929;-74
2022/06/26 12:53:54;;;;;;;;;;;26.30;57.90;;;;;;5035775;28;19955;-76
2022/06/26 12:56:21;;;;;;;;;;;26.40;57.80;;;;;;5039156;28;19929;-74
2022/06/26 12:58:48;;;;;;;;;;;26.40;57.40;;;;;;5037523;28;19928;-74
2022/06/26 13:01:16;;;;;;;;;;;26.50;57.30;;;;;;5035768;28;19933;-74
2022/06/26 13:03:43;;;;;;;;;;;26.60;57.70;;;;;;5035759;28;19928;-75
2022/06/26 13:06:10;;;;;;;;;;;26.60;57.70;;;;;;5041984;28;19933;-75
2022/06/26 13:08:37;;;;;;;;;;;26.70;57.70;;;;;;5032511;28;19935;-75
2022/06/26 13:13:48;;;;;;;;;;;26.70;57.50;;;;;;5033920;28;19985;-76
2022/06/26 13:16:16;;;;;;;;;;;26.80;57.60;;;;;;5029889;28;19932;-75
2022/06/26 13:18:42;;;;;;;;;;;26.80;57.50;;;;;;5032920;28;19928;-74
2022/06/26 13:21:09;;;;;;;;;;;26.80;57.60;;;;;;5038122;28;20320;-74
2022/06/26 13:23:35;;;;;;;;;;;26.80;57.00;;;;;;5034260;28;20633;-75
2022/06/26 13:26:02;;;;;;;;;;;26.90;56.80;;;;;;5034069;28;20701;-74
2022/06/26 13:28:29;;;;;;;;;;;26.90;57.20;;;;;;5036641;28;20528;-74
2022/06/26 13:30:56;;;;;;;;;;;27.00;56.80;;;;;;5034011;28;20095;-75
2022/06/26 13:33:24;;;;;;;;;;;27.00;57.40;;;;;;5031779;28;19940;-74
2022/06/26 13:35:50;;;;;;;;;;;27.00;57.00;;;;;;5028657;28;19933;-74
2022/06/26 13:38:17;;;;;;;;;;;27.10;56.30;;;;;;5030192;28;19929;-76
2022/06/26 13:40:43;;;;;;;;;;;27.10;56.20;;;;;;5038850;28;19928;-74
2022/06/26 13:43:10;;;;;;;;;;;27.20;56.50;;;;;;5038636;28;19932;-74
2022/06/26 13:45:36;;;;;;;;;;;27.20;56.40;;;;;;5037708;28;20354;-73
2022/06/26 13:48:03;;;;;;;;;;;27.20;56.30;;;;;;5036965;28;19933;-74
2022/06/26 13:50:31;;;;;;;;;;;27.30;56.40;;;;;;5027294;28;19929;-74
2022/06/26 13:52:58;;;;;;;;;;;27.30;56.40;;;;;;5030906;28;19936;-74
2022/06/26 13:55:24;;;;;;;;;;;27.40;56.30;;;;;;5031740;28;20649;-74
2022/06/26 13:57:51;;;;;;;;;;;27.40;56.30;;;;;;5039124;28;19932;-75
2022/06/26 14:00:18;;;;;;;;;;;27.50;56.10;;;;;;5037839;28;19929;-74
2022/06/26 14:02:45;;;;;;;;;;;27.50;56.00;;;;;;5036683;28;19929;-75
2022/06/26 14:05:12;;;;;;;;;;;27.50;55.90;;;;;;5034425;28;19928;-75
2022/06/26 14:07:39;;;;;;;;;;;27.50;56.00;;;;;;5032058;28;19935;-74
2022/06/26 14:10:07;;;;;;;;;;;27.50;55.60;;;;;;5029359;28;19935;-75
2022/06/26 14:12:33;;;;;;;;;;;27.50;55.60;;;;;;5032196;28;19939;-75
2022/06/26 14:15:00;;;;;;;;;;;27.50;55.50;;;;;;5031203;28;19925;-74
2022/06/26 14:17:26;;;;;;;;;;;27.60;55.00;;;;;;5033736;28;19925;-75
2022/06/26 14:19:55;;;;;;;;;;;27.60;55.20;;;;;;5035122;28;19972;-76
2022/06/26 14:27:51;;;;;;;;;;;27.80;54.90;;;;;;5029868;28;20162;-75
2022/06/26 14:30:17;;;;;;;;;;;27.90;55.10;;;;;;5031928;28;19963;-75
2022/06/26 14:32:44;;;;;;;;;;;27.90;55.10;;;;;;5038655;28;20171;-73
2022/06/26 14:35:10;;;;;;;;;;;28.00;54.60;;;;;;5044526;28;20385;-75
2022/06/26 14:37:37;;;;;;;;;;;28.00;53.80;;;;;;5038320;28;20401;-74